Pagina principale
METAR-TAF:

METAR-TAF

Aeroporti :

Melun, Francia

latitudine: 48-37N, longitudine: 002-41E, altezza: 95 m

Osservazione

Il bollettino è stato emesso 34 minuti fa, alle 22:30 UTC
Vento 4 kt da nord
Temperature 13°C
Umidità 67%
Pressione 1021 hPa
Visibilità 10 km o più
nessuna nube inferiore a 1500 m e nessun cumulonembo

METAR: LFPM 292230Z AUTO 01004KT CAVOK 13/07 Q1021

Ora: 01:04 (23:04 UTC)


TAF: mancante

Osservazioni e previsioni meteorologiche di più di 4000 aeroporti (messaggi METAR e TAF).

Le stazioni disponibili sono rappresentate dai dischi gialli e rossi sulla carta.

Puntare il mouse per vedere il nome della stazione.

Clicca sopra per visualizzare le osservazioni e previsioni meteorologiche.

Per cambiare la mappa : fare clic sui pulsanti verdi con una croce nera per ingrandire, il pulsante verde con un trattino per diminuire, o sulla freccia verde per le mappe adiacenti.


METAR-TAF: